createdAt,value
2018-10-18T00:00:17.944Z,14.68
2018-10-18T00:02:47.536Z,14.64
2018-10-18T00:05:17.024Z,14.64
2018-10-18T00:07:46.575Z,14.57
2018-10-18T00:10:16.236Z,14.64
2018-10-18T00:12:45.876Z,14.58
2018-10-18T00:15:15.431Z,14.55
2018-10-18T00:17:46.940Z,14.52
2018-10-18T00:20:17.333Z,14.45
2018-10-18T00:22:47.334Z,14.43
2018-10-18T00:25:16.874Z,14.44
2018-10-18T00:27:46.395Z,14.47
2018-10-18T00:30:16.434Z,14.44
2018-10-18T00:32:46.177Z,14.40
2018-10-18T00:35:15.698Z,14.42
2018-10-18T00:37:45.263Z,14.40
2018-10-18T00:40:14.881Z,14.38
2018-10-18T00:42:44.491Z,14.35
2018-10-18T00:45:14.344Z,14.38
2018-10-18T00:47:44.937Z,14.40
2018-10-18T00:50:15.067Z,14.45
2018-10-18T00:52:44.703Z,14.49
2018-10-18T00:55:14.504Z,14.53
2018-10-18T00:57:44.122Z,14.54
2018-10-18T01:00:13.873Z,14.49
2018-10-18T01:02:44.131Z,14.51
2018-10-18T01:05:13.777Z,14.50
2018-10-18T01:07:43.370Z,14.50
2018-10-18T01:10:12.928Z,14.49
2018-10-18T01:12:42.558Z,14.45
2018-10-18T01:15:12.790Z,14.43
2018-10-18T01:17:42.396Z,14.41
2018-10-18T01:20:12.064Z,14.39
2018-10-18T01:22:41.412Z,14.43
2018-10-18T01:25:11.028Z,14.40
2018-10-18T01:27:40.687Z,14.41
2018-10-18T01:30:10.328Z,14.42
2018-10-18T01:32:39.799Z,14.42
2018-10-18T01:35:09.501Z,14.42
2018-10-18T01:37:39.220Z,14.43
2018-10-18T01:40:08.749Z,14.38
2018-10-18T01:42:38.367Z,14.36
2018-10-18T01:45:07.908Z,14.39
2018-10-18T01:47:37.414Z,14.39
2018-10-18T01:50:08.562Z,14.35
2018-10-18T01:52:38.095Z,14.36
2018-10-18T01:55:08.503Z,14.38
2018-10-18T01:57:38.070Z,14.39
2018-10-18T02:00:09.326Z,14.35
2018-10-18T02:02:40.285Z,14.34
2018-10-18T02:05:09.805Z,14.35
2018-10-18T02:07:39.305Z,14.34
2018-10-18T02:10:08.856Z,14.32
2018-10-18T02:12:38.487Z,14.33
2018-10-18T02:15:10.230Z,14.26
2018-10-18T02:17:39.988Z,14.27
2018-10-18T02:20:10.462Z,14.20
2018-10-18T02:22:40.553Z,14.17
2018-10-18T02:25:10.201Z,14.19
2018-10-18T02:27:40.241Z,14.27
2018-10-18T02:30:09.954Z,14.26
2018-10-18T02:32:39.979Z,14.26
2018-10-18T02:35:09.424Z,14.27
2018-10-18T02:37:38.971Z,14.30
2018-10-18T02:40:08.533Z,14.32
2018-10-18T02:42:38.593Z,14.32
2018-10-18T02:45:08.409Z,14.31
2018-10-18T02:47:37.929Z,14.35
2018-10-18T02:50:07.873Z,14.34
2018-10-18T02:52:37.550Z,14.37
2018-10-18T02:55:07.418Z,14.31
2018-10-18T02:57:36.870Z,14.31
2018-10-18T03:00:07.675Z,14.26
2018-10-18T03:02:37.117Z,14.26
2018-10-18T03:05:07.533Z,14.21
2018-10-18T03:07:37.148Z,14.20
2018-10-18T03:10:07.945Z,14.17
2018-10-18T03:12:37.810Z,14.16
2018-10-18T03:15:09.092Z,14.12
2018-10-18T03:17:38.700Z,14.06
2018-10-18T03:20:08.265Z,14.11
2018-10-18T03:22:37.817Z,14.09
2018-10-18T03:25:09.121Z,14.09
2018-10-18T03:27:39.025Z,14.04
2018-10-18T03:30:09.444Z,14.03
2018-10-18T03:32:38.809Z,14.05
2018-10-18T03:35:09.600Z,14.08
2018-10-18T03:37:39.397Z,14.17
2018-10-18T03:40:09.880Z,14.16
2018-10-18T03:42:39.657Z,14.18
2018-10-18T03:45:09.828Z,14.17
2018-10-18T03:47:39.480Z,14.22
2018-10-18T03:50:09.379Z,14.19
2018-10-18T03:52:38.960Z,14.25
2018-10-18T03:55:08.540Z,14.32
2018-10-18T03:57:38.212Z,14.37
2018-10-18T04:00:08.973Z,14.40
2018-10-18T04:02:38.715Z,14.46
2018-10-18T04:05:09.264Z,14.54
2018-10-18T04:07:38.795Z,14.56
2018-10-18T04:10:08.768Z,14.65
2018-10-18T04:12:38.283Z,14.72
2018-10-18T04:15:08.440Z,14.79
2018-10-18T04:17:38.088Z,14.78
2018-10-18T04:20:08.476Z,14.79
2018-10-18T04:22:37.982Z,14.82
2018-10-18T04:25:08.075Z,14.88
2018-10-18T04:27:37.866Z,14.92
2018-10-18T04:30:07.858Z,14.91
2018-10-18T04:32:37.283Z,14.96
2018-10-18T04:35:08.013Z,14.95
2018-10-18T04:37:37.975Z,15.00
2018-10-18T04:40:07.511Z,15.01
2018-10-18T04:42:37.139Z,15.01
2018-10-18T04:45:08.426Z,15.06
2018-10-18T04:47:37.972Z,15.09
2018-10-18T04:50:08.579Z,15.74
2018-10-18T04:52:38.137Z,15.93
2018-10-18T04:55:11.595Z,16.11
2018-10-18T04:57:41.739Z,16.36
2018-10-18T05:00:11.601Z,15.99
2018-10-18T05:02:41.330Z,16.11
2018-10-18T05:05:27.911Z,15.89
2018-10-18T05:07:57.585Z,15.61
2018-10-18T05:10:27.267Z,15.49
2018-10-18T05:12:56.935Z,15.54
2018-10-18T05:15:26.449Z,15.38
2018-10-18T05:17:56.934Z,15.33
2018-10-18T05:20:26.723Z,15.25
2018-10-18T05:22:56.276Z,15.13
2018-10-18T05:25:28.158Z,15.09
2018-10-18T05:27:58.185Z,15.03
2018-10-18T05:30:27.914Z,14.97
2018-10-18T05:32:57.583Z,14.97
2018-10-18T05:35:27.169Z,15.02
2018-10-18T05:37:56.657Z,14.96
2018-10-18T05:40:26.234Z,14.95
2018-10-18T05:42:55.832Z,14.95
2018-10-18T05:45:25.496Z,14.96
2018-10-18T05:47:55.111Z,15.06
2018-10-18T05:50:24.594Z,15.08
2018-10-18T05:52:54.467Z,15.11
2018-10-18T05:55:23.981Z,15.14
2018-10-18T05:57:53.597Z,15.16
2018-10-18T06:00:23.217Z,15.17
2018-10-18T06:02:52.669Z,15.24
2018-10-18T06:05:22.218Z,15.23
2018-10-18T06:07:51.681Z,15.24
2018-10-18T06:10:38.737Z,15.26
2018-10-18T06:13:08.418Z,15.26
2018-10-18T06:15:37.862Z,15.24
2018-10-18T06:18:08.448Z,15.25
2018-10-18T06:20:38.013Z,15.26
2018-10-18T06:23:07.897Z,15.33
2018-10-18T06:25:37.446Z,15.36
2018-10-18T06:28:06.949Z,15.43
2018-10-18T06:30:39.112Z,15.46
2018-10-18T06:33:08.699Z,15.50
2018-10-18T06:35:38.453Z,15.47
2018-10-18T06:38:08.048Z,15.49
2018-10-18T06:40:37.700Z,15.53
2018-10-18T06:43:07.299Z,15.56
2018-10-18T06:45:36.749Z,15.58
2018-10-18T06:48:06.595Z,15.59
2018-10-18T06:50:36.183Z,15.60
2018-10-18T06:53:06.744Z,15.66
2018-10-18T06:55:36.475Z,15.67
2018-10-18T06:58:06.618Z,15.67
2018-10-18T07:00:36.620Z,15.70
2018-10-18T07:03:06.247Z,15.76
2018-10-18T07:05:36.736Z,15.87
2018-10-18T07:08:06.447Z,15.91
2018-10-18T07:10:36.017Z,15.91
2018-10-18T07:13:05.667Z,15.95
2018-10-18T07:15:35.247Z,15.96
2018-10-18T07:18:04.991Z,16.00
2018-10-18T07:20:34.588Z,15.98
2018-10-18T07:23:04.197Z,15.95
2018-10-18T07:25:33.769Z,15.98
2018-10-18T07:28:03.436Z,15.97
2018-10-18T07:30:33.162Z,16.03
2018-10-18T07:33:02.723Z,15.98
2018-10-18T07:35:32.263Z,15.99
2018-10-18T07:38:01.756Z,15.97
2018-10-18T07:40:31.734Z,15.97
2018-10-18T07:43:01.591Z,16.00
2018-10-18T07:45:31.128Z,16.02
2018-10-18T07:48:00.651Z,16.09
2018-10-18T07:50:30.211Z,16.17
2018-10-18T07:52:59.877Z,16.20
2018-10-18T07:55:29.459Z,16.21
2018-10-18T07:57:59.055Z,16.20
2018-10-18T08:00:28.854Z,16.21
2018-10-18T08:02:58.847Z,16.23
2018-10-18T08:05:28.366Z,16.10
2018-10-18T08:07:57.869Z,16.09
2018-10-18T08:10:27.433Z,16.06
2018-10-18T08:12:57.689Z,16.03
2018-10-18T08:15:27.212Z,16.01
2018-10-18T08:17:56.720Z,16.03
2018-10-18T08:20:26.434Z,16.03
2018-10-18T08:22:56.091Z,16.06
2018-10-18T08:25:25.570Z,16.06
2018-10-18T08:27:55.214Z,16.08
2018-10-18T08:30:24.758Z,16.11
2018-10-18T08:32:54.371Z,16.15
2018-10-18T08:35:23.930Z,16.18
2018-10-18T08:37:53.663Z,16.24
2018-10-18T08:40:23.042Z,16.24
2018-10-18T08:42:53.203Z,16.16
2018-10-18T08:45:23.143Z,16.14
2018-10-18T08:47:53.033Z,16.03
2018-10-18T08:50:22.669Z,16.07
2018-10-18T08:52:52.416Z,15.99
2018-10-18T08:55:22.120Z,15.94
2018-10-18T08:57:51.670Z,15.99
2018-10-18T09:00:21.203Z,15.94
2018-10-18T09:02:50.742Z,15.99
2018-10-18T09:05:20.247Z,16.05
2018-10-18T09:07:50.883Z,16.07
2018-10-18T09:10:20.416Z,16.14
2018-10-18T09:12:50.021Z,16.22
2018-10-18T09:15:19.619Z,16.32
2018-10-18T09:17:49.358Z,16.51
2018-10-18T09:20:18.882Z,16.65
2018-10-18T09:22:48.556Z,16.72
2018-10-18T09:25:18.319Z,16.88
2018-10-18T09:27:47.871Z,16.95
2018-10-18T09:30:17.503Z,17.00
2018-10-18T09:32:46.956Z,17.08
2018-10-18T09:35:16.685Z,17.26
2018-10-18T09:37:46.378Z,17.43
2018-10-18T09:40:16.056Z,17.44
2018-10-18T09:42:46.138Z,17.45
2018-10-18T09:45:16.686Z,17.57
2018-10-18T09:47:46.322Z,17.54
2018-10-18T09:50:16.149Z,17.70
2018-10-18T09:52:45.717Z,18.13
2018-10-18T09:55:15.320Z,18.68
2018-10-18T09:57:44.791Z,19.38
2018-10-18T10:00:20.520Z,19.90
2018-10-18T10:03:00.808Z,20.21
2018-10-18T10:05:31.173Z,20.58
2018-10-18T10:08:01.233Z,20.78
2018-10-18T10:10:31.706Z,20.82
2018-10-18T10:13:01.402Z,21.37
2018-10-18T10:15:30.922Z,21.59
2018-10-18T10:18:01.072Z,21.38
2018-10-18T10:20:30.866Z,21.55
2018-10-18T10:23:00.411Z,22.27
2018-10-18T10:25:30.051Z,22.49
2018-10-18T10:27:59.612Z,22.46
2018-10-18T10:30:29.344Z,22.61
2018-10-18T10:32:59.013Z,23.41
2018-10-18T10:35:28.531Z,23.41
2018-10-18T10:37:58.272Z,23.83
2018-10-18T10:40:27.831Z,24.06
2018-10-18T10:42:57.621Z,23.83
2018-10-18T10:45:27.315Z,22.93
2018-10-18T10:47:56.942Z,22.22
2018-10-18T10:50:26.614Z,21.63
2018-10-18T10:52:56.227Z,21.50
2018-10-18T10:55:25.732Z,20.63
2018-10-18T10:57:55.338Z,20.50
2018-10-18T11:01:34.923Z,20.39
2018-10-18T11:04:04.829Z,20.53
2018-10-18T11:06:34.653Z,21.01
2018-10-18T11:09:05.720Z,21.51
2018-10-18T11:11:35.355Z,22.17
2018-10-18T11:14:05.241Z,22.36
2018-10-18T11:16:34.894Z,22.49
2018-10-18T11:19:04.572Z,23.05
2018-10-18T11:21:34.227Z,23.13
2018-10-18T11:24:03.784Z,22.87
2018-10-18T11:26:33.934Z,23.50
2018-10-18T11:29:03.440Z,23.80
2018-10-18T11:31:33.120Z,23.66
2018-10-18T11:34:02.977Z,22.97
2018-10-18T11:36:32.686Z,22.79
2018-10-18T11:39:02.388Z,21.78
2018-10-18T11:41:31.907Z,21.29
2018-10-18T11:44:01.706Z,20.53
2018-10-18T11:46:31.294Z,20.32
2018-10-18T11:49:01.508Z,21.17
2018-10-18T11:51:31.498Z,21.23
2018-10-18T11:54:01.231Z,21.46
2018-10-18T11:56:30.872Z,21.88
2018-10-18T11:59:00.421Z,22.32
2018-10-18T12:01:30.209Z,22.76
2018-10-18T12:03:59.805Z,22.92
2018-10-18T12:06:29.403Z,23.71
2018-10-18T12:08:59.851Z,24.11
2018-10-18T12:11:29.449Z,24.25
2018-10-18T12:13:59.163Z,23.70
2018-10-18T12:16:28.889Z,23.19
2018-10-18T12:18:59.023Z,22.75
2018-10-18T12:21:28.701Z,22.20
2018-10-18T12:23:58.987Z,21.78
2018-10-18T12:26:28.681Z,21.77
2018-10-18T12:28:58.258Z,22.94
2018-10-18T12:31:35.585Z,23.58
2018-10-18T12:34:05.530Z,23.09
2018-10-18T12:36:35.341Z,22.51
2018-10-18T12:39:06.448Z,21.90
2018-10-18T12:41:36.141Z,21.66
2018-10-18T12:44:05.842Z,21.45
2018-10-18T12:46:35.662Z,21.32
2018-10-18T12:49:05.621Z,21.09
2018-10-18T12:51:35.835Z,20.59
2018-10-18T12:54:06.065Z,20.92
2018-10-18T12:56:35.670Z,21.09
2018-10-18T12:59:05.873Z,21.71
2018-10-18T13:01:35.663Z,22.13
2018-10-18T13:04:05.484Z,22.85
2018-10-18T13:06:35.051Z,22.58
2018-10-18T13:09:06.634Z,22.20
2018-10-18T13:11:36.240Z,21.82
2018-10-18T13:14:06.507Z,21.32
2018-10-18T13:16:38.197Z,21.03
2018-10-18T13:19:08.033Z,20.46
2018-10-18T13:21:38.061Z,20.29
2018-10-18T13:24:07.767Z,20.20
2018-10-18T13:26:38.052Z,20.20
2018-10-18T13:29:08.943Z,20.20
2018-10-18T13:31:38.720Z,20.09
2018-10-18T13:34:09.285Z,20.26
2018-10-18T13:36:40.892Z,20.21
2018-10-18T13:39:14.802Z,20.34
2018-10-18T13:41:45.337Z,20.00
2018-10-18T13:44:15.009Z,19.72
2018-10-18T13:46:45.027Z,19.54
2018-10-18T13:49:15.201Z,19.34
2018-10-18T13:51:44.946Z,19.28
2018-10-18T13:54:14.637Z,19.26
2018-10-18T13:56:45.258Z,19.01
2018-10-18T13:59:33.406Z,19.22
2018-10-18T14:02:04.180Z,19.13
2018-10-18T14:04:34.884Z,19.04
2018-10-18T14:07:04.572Z,18.97
2018-10-18T14:09:34.183Z,18.83
2018-10-18T14:12:03.934Z,18.69
2018-10-18T14:14:33.987Z,18.59
2018-10-18T14:17:03.655Z,18.52
2018-10-18T14:19:33.170Z,18.49
2018-10-18T14:22:02.767Z,18.50
2018-10-18T14:24:33.051Z,18.54
2018-10-18T14:27:02.819Z,18.50
2018-10-18T14:29:32.563Z,18.54
2018-10-18T14:32:02.218Z,18.59
2018-10-18T14:34:31.913Z,18.61
2018-10-18T14:37:01.600Z,18.65
2018-10-18T14:39:31.789Z,18.62
2018-10-18T14:42:01.881Z,18.54
2018-10-18T14:44:31.564Z,18.38
2018-10-18T14:47:02.155Z,18.32
2018-10-18T14:49:31.956Z,18.36
2018-10-18T14:52:01.696Z,18.43
2018-10-18T14:54:31.823Z,18.30
2018-10-18T14:57:01.747Z,18.21
2018-10-18T14:59:31.505Z,18.18
2018-10-18T15:02:01.967Z,18.05
2018-10-18T15:04:31.920Z,18.03
2018-10-18T15:07:01.486Z,17.93
2018-10-18T15:09:31.093Z,17.88
2018-10-18T15:12:00.861Z,17.84
2018-10-18T15:14:30.526Z,17.89
2018-10-18T15:17:00.590Z,17.93
2018-10-18T15:19:30.321Z,17.90
2018-10-18T15:22:00.161Z,17.87
2018-10-18T15:24:30.190Z,17.93
2018-10-18T15:27:00.166Z,17.83
2018-10-18T15:29:29.604Z,17.85
2018-10-18T15:31:59.594Z,17.73
2018-10-18T15:34:29.463Z,17.67
2018-10-18T15:36:59.308Z,17.75
2018-10-18T15:39:29.807Z,17.71
2018-10-18T15:42:00.105Z,17.68
2018-10-18T15:44:30.571Z,17.61
2018-10-18T15:47:04.037Z,17.63
2018-10-18T15:49:36.726Z,17.61
2018-10-18T15:52:10.261Z,17.53
2018-10-18T15:54:41.359Z,17.54
2018-10-18T15:57:13.096Z,17.41
2018-10-18T15:59:43.802Z,17.39
2018-10-18T16:02:13.996Z,17.22
2018-10-18T16:04:45.113Z,17.16
2018-10-18T16:07:14.901Z,17.16
2018-10-18T16:09:44.692Z,17.08
2018-10-18T16:12:14.873Z,16.95
2018-10-18T16:14:44.559Z,16.87
2018-10-18T16:17:14.135Z,16.78
2018-10-18T16:19:43.861Z,16.77
2018-10-18T16:22:13.660Z,16.67
2018-10-18T16:24:47.225Z,16.66
2018-10-18T16:27:16.948Z,16.57
2018-10-18T16:29:46.540Z,16.51
2018-10-18T16:32:16.855Z,16.40
2018-10-18T16:34:46.394Z,16.33
2018-10-18T16:37:16.379Z,16.24
2018-10-18T16:39:45.840Z,16.25
2018-10-18T16:42:15.498Z,16.24
2018-10-18T16:45:15.741Z,16.21
2018-10-18T16:47:45.499Z,16.19
2018-10-18T16:50:15.563Z,16.16
2018-10-18T16:52:45.215Z,16.08
2018-10-18T16:55:14.636Z,16.00
2018-10-18T16:57:44.035Z,16.03
2018-10-18T17:00:13.455Z,16.00
2018-10-18T17:02:42.867Z,15.92
2018-10-18T17:05:12.281Z,15.90
2018-10-18T17:07:41.757Z,15.85
2018-10-18T17:10:11.297Z,15.87
2018-10-18T17:12:40.603Z,15.80
2018-10-18T17:15:10.180Z,15.85
2018-10-18T17:17:40.221Z,15.80
2018-10-18T17:20:09.818Z,15.80
2018-10-18T17:22:39.208Z,15.76
2018-10-18T17:25:08.760Z,15.72
2018-10-18T17:27:38.174Z,15.71
2018-10-18T17:30:07.655Z,15.68
2018-10-18T17:32:37.343Z,15.70
2018-10-18T17:35:07.349Z,15.72
2018-10-18T17:37:36.855Z,15.71
2018-10-18T17:40:07.424Z,15.68
2018-10-18T17:42:36.781Z,15.63
2018-10-18T17:45:08.076Z,15.63
2018-10-18T17:47:37.744Z,15.60
2018-10-18T17:50:08.319Z,15.61
2018-10-18T17:52:37.923Z,15.63
2018-10-18T17:55:08.157Z,15.58
2018-10-18T17:57:38.284Z,15.58
2018-10-18T18:00:10.788Z,15.59
2018-10-18T18:02:41.952Z,15.56
2018-10-18T18:05:12.603Z,15.55
2018-10-18T18:07:42.330Z,15.60
2018-10-18T18:10:14.075Z,15.51
2018-10-18T18:12:43.592Z,15.49
2018-10-18T18:15:13.016Z,15.48
2018-10-18T18:17:42.611Z,15.48
2018-10-18T18:20:12.965Z,15.50
2018-10-18T18:22:42.520Z,15.53
2018-10-18T18:25:12.554Z,15.45
2018-10-18T18:27:43.773Z,15.48
2018-10-18T18:30:14.665Z,15.42
2018-10-18T18:32:44.421Z,15.46
2018-10-18T18:35:13.934Z,15.51
2018-10-18T18:37:43.381Z,15.47
2018-10-18T18:40:13.086Z,15.47
2018-10-18T18:42:43.006Z,15.49
2018-10-18T18:45:18.044Z,15.51
2018-10-18T18:47:47.742Z,15.49
2018-10-18T18:50:17.133Z,15.48
2018-10-18T18:52:47.242Z,15.43
2018-10-18T18:55:16.625Z,15.46
2018-10-18T18:57:46.321Z,15.45
2018-10-18T19:00:16.051Z,15.38
2018-10-18T19:02:45.462Z,15.32
2018-10-18T19:05:15.199Z,15.23
2018-10-18T19:07:44.607Z,15.11
2018-10-18T19:10:14.077Z,15.01
2018-10-18T19:12:43.463Z,14.84
2018-10-18T19:15:13.017Z,14.77
2018-10-18T19:17:42.482Z,14.61
2018-10-18T19:20:11.937Z,14.56
2018-10-18T19:22:42.245Z,14.45
2018-10-18T19:25:16.281Z,14.44
2018-10-18T19:27:45.943Z,14.39
2018-10-18T19:30:15.768Z,14.38
2018-10-18T19:32:45.614Z,14.39
2018-10-18T19:35:15.116Z,14.45
2018-10-18T19:37:44.616Z,14.46
2018-10-18T19:40:14.287Z,14.49
2018-10-18T19:42:43.918Z,14.43
2018-10-18T19:45:13.444Z,14.48
2018-10-18T19:47:43.083Z,14.42
2018-10-18T19:50:12.929Z,14.39
2018-10-18T19:52:42.480Z,14.39
2018-10-18T19:55:11.854Z,14.37
2018-10-18T19:57:41.360Z,14.37
2018-10-18T20:00:11.230Z,14.33
2018-10-18T20:02:41.460Z,14.35
2018-10-18T20:05:10.803Z,14.31
2018-10-18T20:07:40.419Z,14.33
2018-10-18T20:10:10.332Z,14.27
2018-10-18T20:12:39.936Z,14.26
2018-10-18T20:15:09.484Z,14.31
2018-10-18T20:17:38.905Z,14.26
2018-10-18T20:20:10.181Z,14.28
2018-10-18T20:22:39.960Z,14.26
2018-10-18T20:25:10.353Z,14.31
2018-10-18T20:29:04.395Z,14.26
2018-10-18T20:31:34.182Z,14.31
2018-10-18T20:34:03.746Z,14.29
2018-10-18T20:36:33.257Z,14.34
2018-10-18T20:39:02.748Z,14.29
2018-10-18T20:41:32.137Z,14.30
2018-10-18T20:44:01.773Z,14.24
2018-10-18T20:46:31.390Z,14.28
2018-10-18T20:49:00.892Z,14.31
2018-10-18T20:51:31.412Z,14.26
2018-10-18T20:54:01.108Z,14.29
2018-10-18T20:56:30.672Z,14.30
2018-10-18T20:59:00.144Z,14.32
2018-10-18T21:01:30.116Z,14.33
2018-10-18T21:03:59.936Z,14.33
2018-10-18T21:06:29.409Z,14.29
2018-10-18T21:08:58.909Z,14.32
2018-10-18T21:11:28.341Z,14.30
2018-10-18T21:13:57.972Z,14.31
2018-10-18T21:16:27.507Z,14.27
2018-10-18T21:18:57.418Z,14.30
2018-10-18T21:21:27.066Z,14.28
2018-10-18T21:23:56.457Z,14.29
2018-10-18T21:26:25.998Z,14.29
2018-10-18T21:28:55.636Z,14.31
2018-10-18T21:31:25.852Z,14.31
2018-10-18T21:33:55.414Z,14.32
2018-10-18T21:36:24.882Z,14.33
2018-10-18T21:38:55.012Z,14.33
2018-10-18T21:41:25.738Z,14.32
2018-10-18T21:43:55.176Z,14.34
2018-10-18T21:46:24.683Z,14.33
2018-10-18T21:48:54.251Z,14.37
2018-10-18T21:51:23.736Z,14.36
2018-10-18T21:53:53.342Z,14.38
2018-10-18T21:56:22.982Z,14.35
2018-10-18T21:58:52.431Z,14.35
2018-10-18T22:04:02.470Z,14.29
2018-10-18T22:06:31.893Z,14.34
2018-10-18T22:09:01.428Z,14.32
2018-10-18T22:11:30.838Z,14.29
2018-10-18T22:14:00.386Z,14.27
2018-10-18T22:16:29.887Z,14.24
2018-10-18T22:19:00.035Z,14.27
2018-10-18T22:21:29.551Z,14.22
2018-10-18T22:23:59.107Z,14.23
2018-10-18T22:26:28.759Z,14.25
2018-10-18T22:28:58.221Z,14.21
2018-10-18T22:31:27.951Z,14.26
2018-10-18T22:33:57.680Z,14.25
2018-10-18T22:36:27.128Z,14.24
2018-10-18T22:38:56.579Z,14.20
2018-10-18T22:41:26.088Z,14.18
2018-10-18T22:43:55.639Z,14.17
2018-10-18T22:46:25.275Z,14.17
2018-10-18T22:48:54.783Z,14.18
2018-10-18T22:51:24.317Z,14.17
2018-10-18T22:53:53.813Z,14.20
2018-10-18T22:56:23.518Z,14.22
2018-10-18T22:58:52.949Z,14.20
2018-10-18T23:01:22.359Z,14.19
2018-10-18T23:03:51.786Z,14.22
2018-10-18T23:06:21.162Z,14.23
2018-10-18T23:08:50.649Z,14.21
2018-10-18T23:11:20.460Z,14.21
2018-10-18T23:13:49.904Z,14.21
2018-10-18T23:16:19.449Z,14.19
2018-10-18T23:18:48.984Z,14.16
2018-10-18T23:21:18.586Z,14.14
2018-10-18T23:23:48.096Z,14.08
2018-10-18T23:26:17.619Z,14.11
2018-10-18T23:28:47.004Z,14.11
2018-10-18T23:31:16.579Z,14.11
2018-10-18T23:33:46.123Z,14.09
2018-10-18T23:36:15.946Z,14.10
2018-10-18T23:38:45.338Z,14.11
2018-10-18T23:41:14.896Z,14.06
2018-10-18T23:43:44.331Z,14.05
2018-10-18T23:46:13.789Z,14.07
2018-10-18T23:48:43.257Z,14.11
2018-10-18T23:51:13.537Z,14.02
2018-10-18T23:53:42.988Z,14.04
2018-10-18T23:56:12.498Z,14.05
2018-10-18T23:58:42.011Z,14.05
